createdAt,value
2022-09-11T00:04:42.892Z,1.25
2022-09-11T00:09:47.230Z,1.27
2022-09-11T00:14:51.863Z,0.82
2022-09-11T00:19:54.577Z,0.80
2022-09-11T00:24:59.449Z,0.95
2022-09-11T00:30:03.854Z,1.00
2022-09-11T00:35:10.873Z,0.88
2022-09-11T00:40:20.329Z,0.75
2022-09-11T00:45:25.229Z,1.13
2022-09-11T00:50:29.717Z,0.32
2022-09-11T00:55:35.358Z,1.48
2022-09-11T01:00:39.590Z,1.08
2022-09-11T01:05:44.641Z,0.80
2022-09-11T01:10:57.362Z,0.52
2022-09-11T01:16:06.008Z,0.90
2022-09-11T01:21:30.272Z,1.10
2022-09-11T01:26:52.359Z,0.80
2022-09-11T01:31:58.440Z,0.43
2022-09-11T01:37:04.570Z,0.90
2022-09-11T01:42:09.087Z,0.90
2022-09-11T01:47:13.652Z,0.82
2022-09-11T01:52:17.673Z,1.15
2022-09-11T01:57:25.877Z,0.90
2022-09-11T02:02:34.233Z,1.00
2022-09-11T02:07:39.702Z,1.00
2022-09-11T02:12:44.332Z,0.88
2022-09-11T02:17:52.381Z,0.63
2022-09-11T02:22:55.158Z,0.35
2022-09-11T02:27:59.078Z,0.65
2022-09-11T02:33:03.199Z,1.00
2022-09-11T02:38:13.139Z,0.68
2022-09-11T02:43:32.317Z,1.20
2022-09-11T02:48:45.473Z,0.50
2022-09-11T02:53:50.307Z,0.80
2022-09-11T02:58:55.518Z,1.23
2022-09-11T03:03:59.518Z,1.13
2022-09-11T03:09:02.382Z,1.10
2022-09-11T03:14:05.132Z,1.47
2022-09-11T03:19:09.133Z,0.93
2022-09-11T03:24:17.180Z,1.02
2022-09-11T03:29:19.802Z,0.95
2022-09-11T03:34:23.852Z,0.93
2022-09-11T03:39:26.459Z,0.80
2022-09-11T03:44:29.228Z,0.77
2022-09-11T03:49:33.986Z,0.80
2022-09-11T03:54:36.675Z,0.57
2022-09-11T03:59:39.262Z,0.70
2022-09-11T04:04:43.314Z,0.70
2022-09-11T04:09:46.565Z,0.90
2022-09-11T04:14:50.374Z,0.88
2022-09-11T04:19:54.297Z,0.90
2022-09-11T04:30:00.404Z,0.95
2022-09-11T04:35:04.574Z,0.80
2022-09-11T04:40:10.071Z,1.50
2022-09-11T04:45:13.321Z,0.80
2022-09-11T04:50:17.371Z,1.20
2022-09-11T04:55:20.024Z,0.88
2022-09-11T05:00:23.077Z,0.97
2022-09-11T05:05:27.133Z,1.02
2022-09-11T05:10:30.037Z,1.05
2022-09-11T05:15:33.027Z,0.80
2022-09-11T05:20:39.956Z,0.90
2022-09-11T05:25:42.577Z,0.70
2022-09-11T05:30:45.686Z,1.10
2022-09-11T05:35:51.250Z,1.00
2022-09-11T05:40:53.854Z,0.90
2022-09-11T05:45:57.691Z,0.70
2022-09-11T05:56:08.883Z,1.20
2022-09-11T06:01:13.076Z,0.88
2022-09-11T06:06:16.841Z,0.70
2022-09-11T06:11:22.306Z,0.90
2022-09-11T06:16:25.350Z,1.10
2022-09-11T06:21:29.367Z,1.20
2022-09-11T06:26:33.681Z,1.10
2022-09-11T06:31:36.458Z,1.13
2022-09-11T06:36:39.562Z,0.93
2022-09-11T06:41:43.915Z,1.05
2022-09-11T06:46:47.462Z,1.20
2022-09-11T06:51:52.384Z,1.15
2022-09-11T06:56:56.844Z,0.80
2022-09-11T07:02:00.903Z,1.30
2022-09-11T07:07:03.715Z,1.20
2022-09-11T07:12:08.077Z,0.93
2022-09-11T07:17:10.788Z,1.20
2022-09-11T07:22:14.673Z,1.30
2022-09-11T07:27:19.550Z,1.15
2022-09-11T07:32:22.205Z,1.30
2022-09-11T07:37:24.889Z,1.00
2022-09-11T07:42:29.036Z,1.23
2022-09-11T07:47:33.889Z,1.20
2022-09-11T07:52:36.889Z,13.18
2022-09-11T07:57:41.641Z,2.58
2022-09-11T08:02:44.314Z,1.58
2022-09-11T08:07:47.084Z,1.67
2022-09-11T08:12:56.790Z,1.42
2022-09-11T08:18:02.487Z,2.75
2022-09-11T08:28:09.848Z,1.92
2022-09-11T08:33:13.522Z,1.80
2022-09-11T08:38:16.598Z,2.08
2022-09-11T08:43:23.473Z,2.10
2022-09-11T08:48:30.357Z,2.13
2022-09-11T08:53:33.803Z,1.92
2022-09-11T09:04:06.039Z,2.10
2022-09-11T09:09:13.241Z,1.98
2022-09-11T09:14:24.762Z,2.50
2022-09-11T09:19:31.605Z,2.55
2022-09-11T09:24:40.862Z,2.17
2022-09-11T09:29:47.203Z,2.22
2022-09-11T09:34:53.934Z,2.65
2022-09-11T09:39:57.001Z,2.20
2022-09-11T09:45:07.564Z,2.75
2022-09-11T09:50:16.414Z,2.40
2022-09-11T09:55:20.118Z,2.42
2022-09-11T10:00:22.817Z,2.30
2022-09-11T10:05:29.513Z,2.88
2022-09-11T10:10:36.364Z,3.03
2022-09-11T10:15:39.951Z,3.17
2022-09-11T10:20:44.508Z,2.30
2022-09-11T10:25:49.999Z,2.78
2022-09-11T10:31:00.261Z,3.30
2022-09-11T10:36:06.184Z,3.03
2022-09-11T10:41:10.904Z,2.85
2022-09-11T10:46:28.288Z,3.10
2022-09-11T10:51:33.119Z,2.90
2022-09-11T10:56:40.424Z,2.53
2022-09-11T11:01:43.308Z,2.53
2022-09-11T11:06:54.669Z,2.40
2022-09-11T11:12:03.768Z,2.47
2022-09-11T11:17:12.320Z,2.42
2022-09-11T11:22:21.418Z,2.28
2022-09-11T11:27:36.629Z,2.00
2022-09-11T11:32:49.633Z,2.10
2022-09-11T11:37:56.513Z,2.05
2022-09-11T11:43:02.277Z,1.95
2022-09-11T11:48:09.174Z,2.45
2022-09-11T11:53:18.373Z,2.10
2022-09-11T11:58:24.164Z,2.10
2022-09-11T12:03:30.765Z,2.00
2022-09-11T12:08:41.004Z,2.53
2022-09-11T12:13:45.362Z,2.00
2022-09-11T12:19:05.638Z,2.20
2022-09-11T12:24:19.881Z,2.30
2022-09-11T12:29:53.138Z,3.10
2022-09-11T12:35:02.066Z,2.08
2022-09-11T12:40:07.400Z,2.17
2022-09-11T12:45:30.329Z,2.17
2022-09-11T12:50:33.372Z,1.77
2022-09-11T12:55:43.425Z,1.70
2022-09-11T13:00:47.725Z,2.42
2022-09-11T13:05:54.641Z,2.42
2022-09-11T13:11:15.274Z,2.30
2022-09-11T13:16:24.377Z,2.40
2022-09-11T13:21:27.948Z,2.33
2022-09-11T13:26:32.740Z,2.78
2022-09-11T13:31:40.178Z,2.42
2022-09-11T13:36:47.665Z,2.58
2022-09-11T13:41:52.383Z,2.70
2022-09-11T13:46:58.275Z,2.42
2022-09-11T13:52:02.549Z,2.40
2022-09-11T13:57:14.258Z,2.63
2022-09-11T14:02:24.840Z,2.47
2022-09-11T14:07:28.264Z,2.42
2022-09-11T14:12:32.130Z,2.17
2022-09-11T14:17:40.301Z,2.55
2022-09-11T14:22:42.952Z,1.90
2022-09-11T14:27:45.930Z,1.83
2022-09-11T14:32:50.328Z,2.95
2022-09-11T14:37:52.975Z,1.45
2022-09-11T14:42:55.705Z,1.90
2022-09-11T14:48:00.477Z,2.00
2022-09-11T14:53:03.165Z,2.67
2022-09-11T14:58:05.932Z,2.60
2022-09-11T15:03:10.078Z,2.00
2022-09-11T15:08:13.128Z,1.85
2022-09-11T15:13:15.906Z,1.60
2022-09-11T15:18:20.343Z,2.65
2022-09-11T15:23:23.825Z,2.70
2022-09-11T15:28:26.564Z,1.73
2022-09-11T15:33:33.043Z,2.78
2022-09-11T15:38:35.765Z,3.03
2022-09-11T15:43:39.635Z,2.30
2022-09-11T15:54:45.565Z,2.40
2022-09-11T15:59:49.963Z,2.22
2022-09-11T16:04:53.847Z,1.52
2022-09-11T16:10:05.736Z,2.40
2022-09-11T16:15:12.666Z,2.53
2022-09-11T16:20:15.427Z,1.48
2022-09-11T16:25:19.776Z,2.80
2022-09-11T16:35:45.224Z,2.40
2022-09-11T16:40:49.607Z,3.03
2022-09-11T16:45:52.618Z,2.88
2022-09-11T16:50:55.826Z,3.05
2022-09-11T16:56:01.447Z,3.22
2022-09-11T17:01:05.201Z,3.30
2022-09-11T17:06:08.371Z,3.50
2022-09-11T17:11:13.839Z,3.13
2022-09-11T17:16:17.494Z,3.20
2022-09-11T17:21:20.257Z,3.38
2022-09-11T17:26:24.664Z,3.53
2022-09-11T17:31:27.335Z,4.13
2022-09-11T17:36:30.425Z,3.60
2022-09-11T17:47:35.613Z,3.50
2022-09-11T17:52:39.710Z,3.92
2022-09-11T17:58:25.150Z,3.53
2022-09-11T18:03:37.000Z,4.68
2022-09-11T18:08:40.534Z,3.35
2022-09-11T18:13:55.424Z,4.10
2022-09-11T18:19:04.022Z,4.20
2022-09-11T18:30:13.590Z,4.15
2022-09-11T18:35:29.265Z,4.50
2022-09-11T18:40:32.899Z,4.80
2022-09-11T18:45:36.046Z,4.82
2022-09-11T18:50:40.129Z,4.45
2022-09-11T18:55:42.749Z,4.50
2022-09-11T19:00:46.728Z,5.68
2022-09-11T19:05:53.224Z,5.10
2022-09-11T19:10:56.084Z,4.93
2022-09-11T19:16:00.354Z,4.27
2022-09-11T19:21:05.659Z,3.42
2022-09-11T19:26:09.701Z,2.63
2022-09-11T19:31:14.067Z,3.60
2022-09-11T19:36:18.704Z,4.80
2022-09-11T19:41:23.208Z,4.38
2022-09-11T19:46:27.176Z,4.43
2022-09-11T19:51:32.790Z,4.70
2022-09-11T19:56:36.670Z,4.15
2022-09-11T20:01:39.351Z,5.03
2022-09-11T20:16:48.844Z,5.18
2022-09-11T20:21:52.973Z,4.37
2022-09-11T20:26:55.641Z,4.90
2022-09-11T20:32:00.600Z,5.07
2022-09-11T20:37:08.105Z,4.60
2022-09-11T20:42:13.554Z,4.40
2022-09-11T20:47:19.728Z,4.40
2022-09-11T20:52:23.927Z,4.20
2022-09-11T20:57:26.773Z,5.55
2022-09-11T21:02:29.613Z,4.20
2022-09-11T21:07:33.674Z,4.70
2022-09-11T21:12:36.806Z,4.80
2022-09-11T21:17:39.420Z,4.85
2022-09-11T21:22:43.530Z,14.57
2022-09-11T21:27:48.229Z,4.72
2022-09-11T21:32:50.953Z,5.15
2022-09-11T21:37:55.022Z,3.90
2022-09-11T21:42:57.733Z,4.50
2022-09-11T21:48:00.447Z,3.70
2022-09-11T21:53:04.585Z,3.47
2022-09-11T21:58:07.628Z,2.53
2022-09-11T22:03:10.956Z,3.60
2022-09-11T22:08:16.330Z,3.28
2022-09-11T22:13:29.131Z,2.63
2022-09-11T22:18:32.049Z,2.88
2022-09-11T22:23:36.237Z,3.40
2022-09-11T22:28:39.071Z,3.03
2022-09-11T22:33:42.727Z,2.72
2022-09-11T22:38:47.024Z,2.80
2022-09-11T22:43:50.824Z,3.08
2022-09-11T22:48:53.608Z,2.47
2022-09-11T22:53:57.711Z,2.15
2022-09-11T22:59:00.912Z,2.83
2022-09-11T23:04:04.333Z,2.85
2022-09-11T23:09:09.474Z,2.70
2022-09-11T23:14:14.533Z,2.42
2022-09-11T23:19:17.796Z,2.90
2022-09-11T23:24:22.081Z,2.90
2022-09-11T23:29:26.013Z,2.83
2022-09-11T23:39:33.324Z,2.17
2022-09-11T23:44:36.081Z,2.53
2022-09-11T23:49:38.801Z,2.50
2022-09-11T23:54:42.883Z,2.15
2022-09-11T23:59:45.758Z,1.80
